This is the latest recevied weather packets stored in our database for station/object SV2HZE-18. If no packets are shown the sender has not sent any weather packets the latest 10 day(s).
| Time | Temp. | Humidity | Pressure | Rain* | Wind** | Luminosity | Snow |
|---|---|---|---|---|---|---|---|
| 1787856731 | 27.78° C | 57% | 1016.7 hPa | - | - | - | - |
| 1787855831 | 27.78° C | 57% | 1016.5 hPa | - | - | - | - |
| 1787854929 | 27.78° C | 58% | 1016.6 hPa | - | - | - | - |
| 1787854029 | 28.33° C | 59% | 1016.6 hPa | - | - | - | - |
| 1787853132 | 28.33° C | 59% | 1016.7 hPa | - | - | - | - |
| 1787851331 | 27.78° C | 60% | 1016.6 hPa | - | - | - | - |
| 1787850427 | 28.33° C | 59% | 1016.5 hPa | - | - | - | - |
| 1787849527 | 28.33° C | 59% | 1016.5 hPa | - | - | - | - |
| 1787848632 | 28.33° C | 58% | 1016.5 hPa | - | - | - | - |
| 1787847724 | 28.89° C | 57% | 1016.6 hPa | - | - | - | - |
| 1787846824 | 28.89° C | 57% | 1016.6 hPa | - | - | - | - |
| 1787845924 | 28.89° C | 58% | 1016.7 hPa | - | - | - | - |
| 1787845024 | 28.89° C | 57% | 1016.7 hPa | - | - | - | - |
| 1787844124 | 28.89° C | 58% | 1016.7 hPa | - | - | - | - |
| 1787843256 | 28.89° C | 57% | 1016.6 hPa | - | - | - | - |
| 1787840537 | 30° C | 52% | 1016.6 hPa | - | - | - | - |
| 1787839637 | 30.56° C | 52% | 1016.7 hPa | - | - | - | - |
| 1787837837 | 30° C | 58% | 1017.1 hPa | - | - | - | - |
| 1787836940 | 30° C | 57% | 1017 hPa | - | - | - | - |
| 1787836038 | 30° C | 58% | 1017.1 hPa | - | - | - | - |
| 1787835138 | 30° C | 57% | 1017.3 hPa | - | - | - | - |
| 1787834229 | 31.11° C | 57% | 1017.2 hPa | - | - | - | - |
| 1787833327 | 31.11° C | 59% | 1017.4 hPa | - | - | - | - |
| 1787832427 | 31.67° C | 55% | 1017.4 hPa | - | - | - | - |
| 1787831527 | 33.33° C | 46% | 1017.7 hPa | - | - | - | - |
* Rain since midnight (hover to see other rain measurements)
** Current wind speed in m/s (hover to see current wind gust speed)